Skip Navigation Links
NOAA logo - Click to go to the NOAA homepage
NOAA's National Weather Service
Alaska Aviation Weather Unit
  NWS logo - Click to go to the NWS homepage
Left Navbar Graphic     22 AKDT = 06 GMT

   
NOAA is celebrating 200 years of science, service, and stewardship. Visit the NOAA 200th celebration Web site to learn more.
USA.gov is the U.S. Government's official Web portal to all Federal, state and local government Web resources and services.
Facebook
NWS on Facebook

Important Change Regarding the AAWU Web Presence

 

Over the last several months, the AAWU has been working to navigate its webpages to a nationally supported server. Security, as well as other needs, have necessitated the change.  In the process, we have made an effort to enhance the functionality of our website, as well as some of our products. As of June 20, 2017, aawu.arh.noaa.gov will be discontinued. The new AAWU web address is weather.gov/aawu. It is now live and will run in-parallel with the old site until it is discontinued. Please send any feedback or questions regarding the new webpages to nws.ar.aawu.webauthors@noaa.gov.  Thank you for your patience during this time of transition.
AAWU Home :: Display TAF Add Bookmark
TAF PAKW 280522Z 2806/2906 24006KT P6SM FEW200
     FM281900 24005KT P6SM FEW070
      AMD LTD TO CLD VIS AND WIND=
METAR PAKW 280053Z AUTO 17009KT 10SM CLR 16/03 A3016 RMK SLP213
     T01610033 TSNO $ VIA AUTODIAL=

METAR PAKW 280153Z AUTO 18008KT 10SM CLR 14/02 A3015 RMK AO2 SLP209
     T01440022 TSNO $=

METAR PAKW 280253Z AUTO 20008KT 10SM CLR 13/04 A3014 RMK AO2 SLP205
     T01330039 58008 TSNO $=

METAR PAKW 280353Z AUTO 22004KT 10SM CLR 12/04 A3013 RMK AO2 SLP203
     T01220044 TSNO $=

METAR PAKW 280453Z AUTO 21003KT 10SM CLR 11/06 A3012 RMK AO2 SLP198
 T01060056 TSNO $=

METAR PAKW 280553Z AUTO 00000KT 10SM CLR 09/05 A3011 RMK AO2 SLP195
     T00940050 10172 20094 57009 TSNO $=


NOAA's National Weather Service
Alaska Aviation Weather Unit
6930 Sand Lake Road
Anchorage, AK 99502-1845
Disclaimer
Credits
Glossary
Privacy Policy
About Us
Career Opportunities
Contact AAWU Internet Services Site last modified: April, 17th 2012